sensor_id;sensor_type;location;lat;lon;timestamp;pressure;altitude;pressure_sealevel;temperature;humidity
66762;BME280;53672;48.176;16.338;2023-02-11T00:01:19;101050.09;;;-0.34;64.68
66762;BME280;53672;48.176;16.338;2023-02-11T00:06:20;101041.97;;;-0.40;65.00
66762;BME280;53672;48.176;16.338;2023-02-11T00:11:22;101041.97;;;-0.48;65.11
66762;BME280;53672;48.176;16.338;2023-02-11T00:16:25;101037.00;;;-0.52;65.52
66762;BME280;53672;48.176;16.338;2023-02-11T00:21:26;101042.41;;;-0.61;65.86
66762;BME280;53672;48.176;16.338;2023-02-11T00:26:28;101048.84;;;-0.72;66.32
66762;BME280;53672;48.176;16.338;2023-02-11T00:31:31;101047.03;;;-0.71;66.55
66762;BME280;53672;48.176;16.338;2023-02-11T00:36:31;101046.00;;;-0.78;67.08
66762;BME280;53672;48.176;16.338;2023-02-11T00:41:32;101040.31;;;-0.91;67.59
66762;BME280;53672;48.176;16.338;2023-02-11T00:46:34;101045.09;;;-1.03;67.95
66762;BME280;53672;48.176;16.338;2023-02-11T00:51:35;101043.56;;;-1.14;68.74
66762;BME280;53672;48.176;16.338;2023-02-11T00:56:35;101033.75;;;-1.21;69.04
66762;BME280;53672;48.176;16.338;2023-02-11T01:01:37;101028.91;;;-1.34;69.50
66762;BME280;53672;48.176;16.338;2023-02-11T01:06:39;101018.94;;;-1.40;69.70
66762;BME280;53672;48.176;16.338;2023-02-11T01:11:40;101026.81;;;-1.48;70.41
66762;BME280;53672;48.176;16.338;2023-02-11T01:16:42;101018.19;;;-1.50;70.72
66762;BME280;53672;48.176;16.338;2023-02-11T01:21:42;101024.50;;;-1.51;70.99
66762;BME280;53672;48.176;16.338;2023-02-11T01:26:43;101008.25;;;-1.56;71.43
66762;BME280;53672;48.176;16.338;2023-02-11T01:31:45;101002.31;;;-1.58;71.68
66762;BME280;53672;48.176;16.338;2023-02-11T01:36:45;101000.53;;;-1.49;71.44
66762;BME280;53672;48.176;16.338;2023-02-11T01:41:46;100998.84;;;-1.59;72.08
66762;BME280;53672;48.176;16.338;2023-02-11T01:46:48;101002.47;;;-1.60;72.74
66762;BME280;53672;48.176;16.338;2023-02-11T01:51:52;100987.22;;;-1.66;72.42
66762;BME280;53672;48.176;16.338;2023-02-11T01:56:56;100984.13;;;-1.61;72.16
66762;BME280;53672;48.176;16.338;2023-02-11T02:02:02;100991.31;;;-1.71;72.47
66762;BME280;53672;48.176;16.338;2023-02-11T02:07:07;100985.72;;;-1.68;72.81
66762;BME280;53672;48.176;16.338;2023-02-11T02:12:09;100986.59;;;-1.85;73.60
66762;BME280;53672;48.176;16.338;2023-02-11T02:17:21;100982.75;;;-1.91;74.29
66762;BME280;53672;48.176;16.338;2023-02-11T02:22:51;100978.94;;;-1.96;74.87
66762;BME280;53672;48.176;16.338;2023-02-11T02:28:12;100966.34;;;-2.02;76.28
66762;BME280;53672;48.176;16.338;2023-02-11T02:33:29;100946.50;;;-2.07;75.78
66762;BME280;53672;48.176;16.338;2023-02-11T02:38:36;100937.28;;;-2.02;76.10
66762;BME280;53672;48.176;16.338;2023-02-11T02:43:40;100929.69;;;-2.06;76.10
66762;BME280;53672;48.176;16.338;2023-02-11T02:48:44;100926.50;;;-2.09;76.21
66762;BME280;53672;48.176;16.338;2023-02-11T02:53:54;100918.34;;;-2.16;77.33
66762;BME280;53672;48.176;16.338;2023-02-11T02:59:07;100917.69;;;-2.18;78.47
66762;BME280;53672;48.176;16.338;2023-02-11T03:04:17;100930.97;;;-2.10;79.05
66762;BME280;53672;48.176;16.338;2023-02-11T03:09:24;100926.19;;;-2.06;78.66
66762;BME280;53672;48.176;16.338;2023-02-11T03:14:28;100911.94;;;-2.13;78.98
66762;BME280;53672;48.176;16.338;2023-02-11T03:19:33;100916.72;;;-2.17;80.06
66762;BME280;53672;48.176;16.338;2023-02-11T03:24:36;100903.53;;;-2.09;80.00
66762;BME280;53672;48.176;16.338;2023-02-11T03:29:41;100894.66;;;-2.08;80.23
66762;BME280;53672;48.176;16.338;2023-02-11T03:34:47;100895.16;;;-2.04;80.11
66762;BME280;53672;48.176;16.338;2023-02-11T03:39:51;100886.28;;;-1.69;79.95
66762;BME280;53672;48.176;16.338;2023-02-11T03:44:58;100877.06;;;-1.57;79.00
66762;BME280;53672;48.176;16.338;2023-02-11T03:50:02;100868.53;;;-1.51;78.45
66762;BME280;53672;48.176;16.338;2023-02-11T03:55:08;100857.53;;;-1.30;78.04
66762;BME280;53672;48.176;16.338;2023-02-11T04:00:11;100848.50;;;-0.79;75.60
66762;BME280;53672;48.176;16.338;2023-02-11T04:05:14;100835.75;;;-0.35;73.59
66762;BME280;53672;48.176;16.338;2023-02-11T04:10:15;100835.88;;;-0.29;73.06
66762;BME280;53672;48.176;16.338;2023-02-11T04:15:16;100847.13;;;-0.27;72.78
66762;BME280;53672;48.176;16.338;2023-02-11T04:20:18;100859.88;;;-0.22;72.95
66762;BME280;53672;48.176;16.338;2023-02-11T04:25:19;100852.94;;;-0.31;72.70
66762;BME280;53672;48.176;16.338;2023-02-11T04:30:19;100853.06;;;-0.17;72.74
66762;BME280;53672;48.176;16.338;2023-02-11T04:35:21;100856.75;;;-0.34;73.39
66762;BME280;53672;48.176;16.338;2023-02-11T04:40:22;100847.50;;;-0.54;73.98
66762;BME280;53672;48.176;16.338;2023-02-11T04:45:22;100842.72;;;-0.67;74.93
66762;BME280;53672;48.176;16.338;2023-02-11T04:50:24;100836.09;;;-0.71;75.62
66762;BME280;53672;48.176;16.338;2023-02-11T04:55:25;100840.69;;;-0.40;74.01
66762;BME280;53672;48.176;16.338;2023-02-11T05:00:25;100846.81;;;-0.32;73.86
66762;BME280;53672;48.176;16.338;2023-02-11T05:05:27;100827.06;;;-0.13;73.05
66762;BME280;53672;48.176;16.338;2023-02-11T05:10:28;100828.38;;;-0.01;72.59
66762;BME280;53672;48.176;16.338;2023-02-11T05:15:28;100837.69;;;0.34;71.24
66762;BME280;53672;48.176;16.338;2023-02-11T05:20:30;100835.41;;;0.62;70.10
66762;BME280;53672;48.176;16.338;2023-02-11T05:25:30;100834.13;;;0.80;68.56
66762;BME280;53672;48.176;16.338;2023-02-11T05:30:31;100834.69;;;0.98;67.65
66762;BME280;53672;48.176;16.338;2023-02-11T05:35:33;100833.94;;;1.13;66.35
66762;BME280;53672;48.176;16.338;2023-02-11T05:40:34;100831.19;;;1.21;65.53
66762;BME280;53672;48.176;16.338;2023-02-11T05:45:34;100819.84;;;1.27;65.21
66762;BME280;53672;48.176;16.338;2023-02-11T05:50:36;100829.41;;;1.36;64.24
66762;BME280;53672;48.176;16.338;2023-02-11T05:55:37;100825.25;;;1.56;63.07
66762;BME280;53672;48.176;16.338;2023-02-11T06:00:37;100819.41;;;1.61;62.49
66762;BME280;53672;48.176;16.338;2023-02-11T06:05:41;100823.06;;;1.60;62.66
66762;BME280;53672;48.176;16.338;2023-02-11T06:10:43;100803.69;;;1.51;63.14
66762;BME280;53672;48.176;16.338;2023-02-11T06:15:44;100794.94;;;1.50;63.07
66762;BME280;53672;48.176;16.338;2023-02-11T06:20:46;100771.22;;;1.64;62.53
66762;BME280;53672;48.176;16.338;2023-02-11T06:25:46;100767.53;;;1.65;62.66
66762;BME280;53672;48.176;16.338;2023-02-11T06:30:47;100774.22;;;1.75;62.23
66762;BME280;53672;48.176;16.338;2023-02-11T06:35:49;100770.19;;;1.79;62.24
66762;BME280;53672;48.176;16.338;2023-02-11T06:40:49;100759.13;;;1.90;61.66
66762;BME280;53672;48.176;16.338;2023-02-11T06:45:52;100754.25;;;1.94;61.20
66762;BME280;53672;48.176;16.338;2023-02-11T06:50:54;100752.31;;;2.02;60.69
66762;BME280;53672;48.176;16.338;2023-02-11T06:55:54;100762.31;;;2.15;59.91
66762;BME280;53672;48.176;16.338;2023-02-11T07:00:55;100753.56;;;2.36;59.19
66762;BME280;53672;48.176;16.338;2023-02-11T07:05:56;100752.81;;;2.84;57.25
66762;BME280;53672;48.176;16.338;2023-02-11T07:10:57;100743.53;;;3.23;55.55
66762;BME280;53672;48.176;16.338;2023-02-11T07:15:57;100730.38;;;3.42;54.70
66762;BME280;53672;48.176;16.338;2023-02-11T07:21:03;100722.91;;;4.00;52.18
66762;BME280;53672;48.176;16.338;2023-02-11T07:26:05;100723.72;;;4.48;50.61
66762;BME280;53672;48.176;16.338;2023-02-11T07:31:06;100727.25;;;4.81;49.79
66762;BME280;53672;48.176;16.338;2023-02-11T07:36:09;100733.44;;;5.15;47.61
66762;BME280;53672;48.176;16.338;2023-02-11T07:41:13;100722.75;;;5.21;47.23
66762;BME280;53672;48.176;16.338;2023-02-11T07:46:15;100724.81;;;5.26;47.24
66762;BME280;53672;48.176;16.338;2023-02-11T07:51:20;100719.22;;;5.60;45.76
66762;BME280;53672;48.176;16.338;2023-02-11T07:56:21;100752.31;;;5.79;45.57
66762;BME280;53672;48.176;16.338;2023-02-11T08:01:23;100749.84;;;5.71;45.68
66762;BME280;53672;48.176;16.338;2023-02-11T08:06:27;100758.06;;;5.69;45.81
66762;BME280;53672;48.176;16.338;2023-02-11T08:11:28;100763.03;;;5.52;45.82
66762;BME280;53672;48.176;16.338;2023-02-11T08:16:30;100757.50;;;5.54;46.05
66762;BME280;53672;48.176;16.338;2023-02-11T08:21:32;100739.38;;;5.62;45.70
66762;BME280;53672;48.176;16.338;2023-02-11T08:26:33;100743.66;;;5.77;45.85
66762;BME280;53672;48.176;16.338;2023-02-11T08:31:36;100747.34;;;5.82;44.82
66762;BME280;53672;48.176;16.338;2023-02-11T08:36:40;100756.00;;;5.84;44.58
66762;BME280;53672;48.176;16.338;2023-02-11T08:41:41;100729.44;;;5.89;45.08
66762;BME280;53672;48.176;16.338;2023-02-11T08:46:41;100744.44;;;6.03;44.16
66762;BME280;53672;48.176;16.338;2023-02-11T08:51:44;100746.00;;;7.49;41.56
66762;BME280;53672;48.176;16.338;2023-02-11T08:56:44;100735.28;;;10.28;35.24
66762;BME280;53672;48.176;16.338;2023-02-11T09:01:45;100737.53;;;11.04;33.62
66762;BME280;53672;48.176;16.338;2023-02-11T09:06:47;100748.34;;;9.61;36.18
66762;BME280;53672;48.176;16.338;2023-02-11T09:11:47;100733.69;;;9.10;37.19
66762;BME280;53672;48.176;16.338;2023-02-11T09:16:49;100723.84;;;9.04;37.73
66762;BME280;53672;48.176;16.338;2023-02-11T09:21:51;100726.81;;;8.73;38.24
66762;BME280;53672;48.176;16.338;2023-02-11T09:26:52;100721.13;;;8.93;38.33
66762;BME280;53672;48.176;16.338;2023-02-11T09:31:52;100731.59;;;9.71;37.24
66762;BME280;53672;48.176;16.338;2023-02-11T09:36:54;100720.13;;;9.75;36.80
66762;BME280;53672;48.176;16.338;2023-02-11T09:42:09;100707.84;;;9.33;37.72
66762;BME280;53672;48.176;16.338;2023-02-11T09:47:24;100700.09;;;8.48;39.47
66762;BME280;53672;48.176;16.338;2023-02-11T09:52:31;100696.16;;;7.78;41.12
66762;BME280;53672;48.176;16.338;2023-02-11T09:57:35;100683.44;;;7.74;41.52
66762;BME280;53672;48.176;16.338;2023-02-11T10:02:46;100692.22;;;8.47;40.08
66762;BME280;53672;48.176;16.338;2023-02-11T10:07:57;100688.53;;;9.59;38.02
66762;BME280;53672;48.176;16.338;2023-02-11T10:13:17;100675.75;;;10.29;35.97
66762;BME280;53672;48.176;16.338;2023-02-11T10:18:44;100679.13;;;9.96;36.60
66762;BME280;53672;48.176;16.338;2023-02-11T10:23:49;100667.59;;;9.49;37.13
66762;BME280;53672;48.176;16.338;2023-02-11T10:28:52;100655.31;;;8.95;38.44
66762;BME280;53672;48.176;16.338;2023-02-11T10:33:57;100639.84;;;8.68;38.77
66762;BME280;53672;48.176;16.338;2023-02-11T10:44:18;100639.28;;;9.47;37.23
66762;BME280;53672;48.176;16.338;2023-02-11T10:49:36;100644.53;;;9.42;37.09
66762;BME280;53672;48.176;16.338;2023-02-11T10:54:38;100645.03;;;9.90;36.25
66762;BME280;53672;48.176;16.338;2023-02-11T10:59:39;100638.41;;;10.66;34.95
66762;BME280;53672;48.176;16.338;2023-02-11T11:04:42;100625.25;;;11.03;33.73
66762;BME280;53672;48.176;16.338;2023-02-11T11:09:47;100617.50;;;13.79;29.15
66762;BME280;53672;48.176;16.338;2023-02-11T11:14:53;100617.84;;;13.41;29.51
66762;BME280;53672;48.176;16.338;2023-02-11T11:20:13;100597.78;;;12.09;31.32
66762;BME280;53672;48.176;16.338;2023-02-11T11:25:24;100594.50;;;11.20;32.05
66762;BME280;53672;48.176;16.338;2023-02-11T11:30:30;100578.84;;;10.84;32.68
66762;BME280;53672;48.176;16.338;2023-02-11T11:35:32;100562.03;;;10.60;33.11
66762;BME280;53672;48.176;16.338;2023-02-11T11:40:34;100552.06;;;10.78;33.19
66762;BME280;53672;48.176;16.338;2023-02-11T11:45:35;100533.09;;;10.56;33.40
66762;BME280;53672;48.176;16.338;2023-02-11T11:50:39;100517.38;;;9.75;34.39
66762;BME280;53672;48.176;16.338;2023-02-11T11:55:44;100519.16;;;9.41;35.07
66762;BME280;53672;48.176;16.338;2023-02-11T12:00:52;100518.31;;;9.52;35.02
66762;BME280;53672;48.176;16.338;2023-02-11T12:06:07;100502.72;;;9.54;35.17
66762;BME280;53672;48.176;16.338;2023-02-11T12:11:15;100466.88;;;9.37;35.69
66762;BME280;53672;48.176;16.338;2023-02-11T12:16:30;100473.56;;;8.83;36.72
66762;BME280;53672;48.176;16.338;2023-02-11T12:21:39;100475.72;;;8.97;37.63
66762;BME280;53672;48.176;16.338;2023-02-11T12:26:49;100475.97;;;8.96;38.09
66762;BME280;53672;48.176;16.338;2023-02-11T12:32:02;100463.44;;;9.01;37.60
66762;BME280;53672;48.176;16.338;2023-02-11T12:37:16;100460.69;;;8.85;37.30
66762;BME280;53672;48.176;16.338;2023-02-11T12:42:49;100470.03;;;8.82;37.19
66762;BME280;53672;48.176;16.338;2023-02-11T12:48:03;100468.19;;;8.83;36.83
66762;BME280;53672;48.176;16.338;2023-02-11T12:53:16;100458.13;;;9.18;35.38
66762;BME280;53672;48.176;16.338;2023-02-11T12:58:26;100477.00;;;9.46;34.18
66762;BME280;53672;48.176;16.338;2023-02-11T13:03:34;100469.97;;;9.17;34.56
66762;BME280;53672;48.176;16.338;2023-02-11T13:08:41;100486.81;;;9.01;35.88
66762;BME280;53672;48.176;16.338;2023-02-11T13:13:52;100493.97;;;8.95;35.69
66762;BME280;53672;48.176;16.338;2023-02-11T13:19:01;100488.94;;;8.99;35.08
66762;BME280;53672;48.176;16.338;2023-02-11T13:24:16;100502.00;;;9.18;35.44
66762;BME280;53672;48.176;16.338;2023-02-11T13:29:26;100506.13;;;8.98;36.21
66762;BME280;53672;48.176;16.338;2023-02-11T13:34:55;100502.97;;;8.43;37.23
66762;BME280;53672;48.176;16.338;2023-02-11T13:39:58;100487.84;;;8.18;37.98
66762;BME280;53672;48.176;16.338;2023-02-11T13:45:00;100500.13;;;8.14;38.32
66762;BME280;53672;48.176;16.338;2023-02-11T13:50:04;100509.34;;;8.18;38.96
66762;BME280;53672;48.176;16.338;2023-02-11T13:55:08;100503.88;;;8.25;39.38
66762;BME280;53672;48.176;16.338;2023-02-11T14:00:44;100494.47;;;8.46;38.62
66762;BME280;53672;48.176;16.338;2023-02-11T14:06:10;100497.22;;;8.28;38.89
66762;BME280;53672;48.176;16.338;2023-02-11T14:17:29;100514.38;;;7.74;40.09
66762;BME280;53672;48.176;16.338;2023-02-11T14:22:41;100507.31;;;7.61;40.47
66762;BME280;53672;48.176;16.338;2023-02-11T14:27:47;100503.06;;;7.83;40.32
66762;BME280;53672;48.176;16.338;2023-02-11T14:38:29;100485.66;;;7.44;41.65
66762;BME280;53672;48.176;16.338;2023-02-11T14:43:37;100489.63;;;7.24;42.55
66762;BME280;53672;48.176;16.338;2023-02-11T14:48:44;100495.97;;;7.11;43.41
66762;BME280;53672;48.176;16.338;2023-02-11T14:53:48;100500.81;;;7.02;44.25
66762;BME280;53672;48.176;16.338;2023-02-11T14:58:50;100485.50;;;6.91;44.80
66762;BME280;53672;48.176;16.338;2023-02-11T15:03:52;100481.00;;;6.85;45.63
66762;BME280;53672;48.176;16.338;2023-02-11T15:08:56;100489.84;;;6.86;46.04
66762;BME280;53672;48.176;16.338;2023-02-11T15:14:00;100496.13;;;6.80;46.68
66762;BME280;53672;48.176;16.338;2023-02-11T15:19:18;100491.47;;;6.69;47.79
66762;BME280;53672;48.176;16.338;2023-02-11T15:24:22;100501.50;;;6.55;48.60
66762;BME280;53672;48.176;16.338;2023-02-11T15:29:24;100501.19;;;6.45;48.69
66762;BME280;53672;48.176;16.338;2023-02-11T15:34:27;100506.41;;;6.40;50.08
66762;BME280;53672;48.176;16.338;2023-02-11T15:39:32;100499.66;;;6.31;50.57
66762;BME280;53672;48.176;16.338;2023-02-11T15:44:33;100501.16;;;6.27;51.67
66762;BME280;53672;48.176;16.338;2023-02-11T15:49:36;100497.28;;;6.23;52.00
66762;BME280;53672;48.176;16.338;2023-02-11T15:54:38;100490.91;;;6.17;52.68
66762;BME280;53672;48.176;16.338;2023-02-11T15:59:45;100464.81;;;6.13;53.50
66762;BME280;53672;48.176;16.338;2023-02-11T16:04:53;100464.50;;;6.02;54.03
66762;BME280;53672;48.176;16.338;2023-02-11T16:09:56;100448.84;;;5.99;54.57
66762;BME280;53672;48.176;16.338;2023-02-11T16:14:58;100464.19;;;5.86;55.89
66762;BME280;53672;48.176;16.338;2023-02-11T16:20:00;100481.56;;;5.70;56.26
66762;BME280;53672;48.176;16.338;2023-02-11T16:25:02;100501.34;;;5.62;56.79
66762;BME280;53672;48.176;16.338;2023-02-11T16:30:04;100504.63;;;5.65;57.36
66762;BME280;53672;48.176;16.338;2023-02-11T16:35:10;100517.19;;;5.64;57.93
66762;BME280;53672;48.176;16.338;2023-02-11T16:40:12;100509.16;;;5.64;58.49
66762;BME280;53672;48.176;16.338;2023-02-11T16:45:13;100518.81;;;5.65;58.30
66762;BME280;53672;48.176;16.338;2023-02-11T16:50:21;100506.69;;;5.62;58.69
66762;BME280;53672;48.176;16.338;2023-02-11T16:55:23;100508.97;;;5.59;59.66
66762;BME280;53672;48.176;16.338;2023-02-11T17:00:25;100516.19;;;5.52;59.89
66762;BME280;53672;48.176;16.338;2023-02-11T17:05:27;100504.94;;;5.43;60.72
66762;BME280;53672;48.176;16.338;2023-02-11T17:10:29;100521.88;;;5.31;60.99
66762;BME280;53672;48.176;16.338;2023-02-11T17:15:30;100521.69;;;5.19;61.01
66762;BME280;53672;48.176;16.338;2023-02-11T17:20:32;100527.91;;;5.06;62.04
66762;BME280;53672;48.176;16.338;2023-02-11T17:25:33;100543.97;;;4.93;61.80
66762;BME280;53672;48.176;16.338;2023-02-11T17:30:34;100543.34;;;4.91;61.68
66762;BME280;53672;48.176;16.338;2023-02-11T17:35:40;100539.25;;;4.89;62.02
66762;BME280;53672;48.176;16.338;2023-02-11T17:40:41;100550.56;;;4.84;61.44
66762;BME280;53672;48.176;16.338;2023-02-11T17:45:42;100559.38;;;4.98;60.92
66762;BME280;53672;48.176;16.338;2023-02-11T17:50:44;100549.47;;;5.11;59.93
66762;BME280;53672;48.176;16.338;2023-02-11T17:55:46;100545.16;;;5.17;59.51
66762;BME280;53672;48.176;16.338;2023-02-11T18:00:47;100564.00;;;5.29;58.48
66762;BME280;53672;48.176;16.338;2023-02-11T18:05:49;100537.69;;;5.32;58.80
66762;BME280;53672;48.176;16.338;2023-02-11T18:10:50;100539.06;;;5.41;57.86
66762;BME280;53672;48.176;16.338;2023-02-11T18:15:51;100525.72;;;5.48;57.68
66762;BME280;53672;48.176;16.338;2023-02-11T18:20:57;100550.13;;;5.58;57.26
66762;BME280;53672;48.176;16.338;2023-02-11T18:25:58;100552.97;;;5.63;57.38
66762;BME280;53672;48.176;16.338;2023-02-11T18:31:00;100554.41;;;5.66;56.76
66762;BME280;53672;48.176;16.338;2023-02-11T18:36:05;100555.41;;;5.71;56.93
66762;BME280;53672;48.176;16.338;2023-02-11T18:41:07;100560.53;;;5.73;56.61
66762;BME280;53672;48.176;16.338;2023-02-11T18:46:10;100577.41;;;5.73;57.15
66762;BME280;53672;48.176;16.338;2023-02-11T18:51:15;100578.84;;;5.76;57.09
66762;BME280;53672;48.176;16.338;2023-02-11T18:56:17;100580.91;;;5.74;57.09
66762;BME280;53672;48.176;16.338;2023-02-11T19:01:20;100576.19;;;5.69;58.16
66762;BME280;53672;48.176;16.338;2023-02-11T19:06:25;100577.41;;;5.73;57.61
66762;BME280;53672;48.176;16.338;2023-02-11T19:11:29;100589.75;;;5.74;58.27
66762;BME280;53672;48.176;16.338;2023-02-11T19:16:31;100594.88;;;5.76;58.17
66762;BME280;53672;48.176;16.338;2023-02-11T19:21:34;100598.38;;;5.76;58.16
66762;BME280;53672;48.176;16.338;2023-02-11T19:26:36;100593.22;;;5.81;58.11
66762;BME280;53672;48.176;16.338;2023-02-11T19:31:37;100597.53;;;5.82;58.29
66762;BME280;53672;48.176;16.338;2023-02-11T19:36:40;100596.72;;;5.82;58.33
66762;BME280;53672;48.176;16.338;2023-02-11T19:41:42;100585.41;;;5.86;58.97
66762;BME280;53672;48.176;16.338;2023-02-11T19:46:43;100582.28;;;5.89;59.08
66762;BME280;53672;48.176;16.338;2023-02-11T19:51:45;100584.16;;;5.89;59.24
66762;BME280;53672;48.176;16.338;2023-02-11T19:56:47;100576.94;;;5.89;59.40
66762;BME280;53672;48.176;16.338;2023-02-11T20:01:49;100578.59;;;5.90;59.80
66762;BME280;53672;48.176;16.338;2023-02-11T20:06:52;100579.22;;;5.86;59.91
66762;BME280;53672;48.176;16.338;2023-02-11T20:11:55;100597.56;;;5.89;60.60
66762;BME280;53672;48.176;16.338;2023-02-11T20:16:56;100592.78;;;5.84;60.85
66762;BME280;53672;48.176;16.338;2023-02-11T20:21:59;100581.91;;;5.86;61.28
66762;BME280;53672;48.176;16.338;2023-02-11T20:27:00;100588.47;;;5.83;61.11
66762;BME280;53672;48.176;16.338;2023-02-11T20:32:01;100601.03;;;5.83;61.40
66762;BME280;53672;48.176;16.338;2023-02-11T20:37:04;100595.91;;;5.81;61.96
66762;BME280;53672;48.176;16.338;2023-02-11T20:42:05;100616.91;;;5.78;61.99
66762;BME280;53672;48.176;16.338;2023-02-11T20:47:06;100603.13;;;5.74;62.06
66762;BME280;53672;48.176;16.338;2023-02-11T20:52:09;100598.22;;;5.71;62.46
66762;BME280;53672;48.176;16.338;2023-02-11T20:57:10;100587.94;;;5.68;62.92
66762;BME280;53672;48.176;16.338;2023-02-11T21:02:11;100598.00;;;5.66;63.26
66762;BME280;53672;48.176;16.338;2023-02-11T21:07:13;100578.88;;;5.69;63.61
66762;BME280;53672;48.176;16.338;2023-02-11T21:12:14;100581.81;;;5.61;64.09
66762;BME280;53672;48.176;16.338;2023-02-11T21:17:17;100564.97;;;5.54;64.78
66762;BME280;53672;48.176;16.338;2023-02-11T21:22:19;100565.16;;;5.52;64.84
66762;BME280;53672;48.176;16.338;2023-02-11T21:27:20;100571.53;;;5.51;65.61
66762;BME280;53672;48.176;16.338;2023-02-11T21:32:21;100578.53;;;5.52;65.24
66762;BME280;53672;48.176;16.338;2023-02-11T21:37:25;100570.94;;;5.49;65.34
66762;BME280;53672;48.176;16.338;2023-02-11T21:42:26;100567.66;;;5.47;65.82
66762;BME280;53672;48.176;16.338;2023-02-11T21:47:26;100573.44;;;5.44;66.06
66762;BME280;53672;48.176;16.338;2023-02-11T21:52:29;100561.53;;;5.34;66.09
66762;BME280;53672;48.176;16.338;2023-02-11T21:57:30;100568.75;;;5.27;66.84
66762;BME280;53672;48.176;16.338;2023-02-11T22:02:30;100578.81;;;5.25;66.84
66762;BME280;53672;48.176;16.338;2023-02-11T22:07:33;100593.41;;;5.29;67.22
66762;BME280;53672;48.176;16.338;2023-02-11T22:12:34;100587.22;;;5.35;66.90
66762;BME280;53672;48.176;16.338;2023-02-11T22:17:35;100588.44;;;5.39;66.92
66762;BME280;53672;48.176;16.338;2023-02-11T22:22:37;100596.47;;;5.39;67.29
66762;BME280;53672;48.176;16.338;2023-02-11T22:27:37;100611.50;;;5.40;68.18
66762;BME280;53672;48.176;16.338;2023-02-11T22:32:38;100610.03;;;5.44;67.95
66762;BME280;53672;48.176;16.338;2023-02-11T22:37:40;100608.81;;;5.40;68.18
66762;BME280;53672;48.176;16.338;2023-02-11T22:42:40;100617.66;;;5.40;68.79
66762;BME280;53672;48.176;16.338;2023-02-11T22:47:41;100629.78;;;5.43;68.23
66762;BME280;53672;48.176;16.338;2023-02-11T22:52:43;100623.84;;;5.41;68.06
66762;BME280;53672;48.176;16.338;2023-02-11T22:57:43;100622.19;;;5.40;68.54
66762;BME280;53672;48.176;16.338;2023-02-11T23:02:44;100639.66;;;5.36;68.63
66762;BME280;53672;48.176;16.338;2023-02-11T23:07:46;100641.31;;;5.37;68.78
66762;BME280;53672;48.176;16.338;2023-02-11T23:12:46;100654.69;;;5.37;68.73
66762;BME280;53672;48.176;16.338;2023-02-11T23:17:47;100651.19;;;5.36;68.80
66762;BME280;53672;48.176;16.338;2023-02-11T23:22:49;100649.94;;;5.32;69.16
66762;BME280;53672;48.176;16.338;2023-02-11T23:27:49;100648.13;;;5.26;69.88
66762;BME280;53672;48.176;16.338;2023-02-11T23:32:50;100645.47;;;5.20;69.75
66762;BME280;53672;48.176;16.338;2023-02-11T23:37:52;100628.19;;;5.16;70.40
66762;BME280;53672;48.176;16.338;2023-02-11T23:42:53;100640.94;;;5.20;70.02
66762;BME280;53672;48.176;16.338;2023-02-11T23:47:53;100642.97;;;5.18;70.21
66762;BME280;53672;48.176;16.338;2023-02-11T23:52:55;100637.63;;;5.18;70.29
66762;BME280;53672;48.176;16.338;2023-02-11T23:57:56;100653.25;;;5.15;71.63
